Flight Track Log - Related Links

Times and Time Zones

All times are in EDT time to prevent confusion due to time zone crossing. See the FLG3429 flight status page for this flight to view local times or setup timezone preferences in your user account.

Time Position Orientation Groundspeed Altitude Reporting Facility
EDT Latitude Longitude Course Direction KTS MPH feet Rate Location/Type
Wed 04:15:19 PM 46.2219 -119.1747 72° East 192 221 2,700  Level Salt Lake Center
Wed 04:16:20 PM 46.1875 -119.0958 122° Southeast 264 304 4,200 2,115 Climbing Seattle Center
Wed 04:17:00 PM 46.3624 -118.6478 73° East  Level FlightAware Approximate
Wed 04:17:21 PM 46.1650 -118.9864 106° East 283 326 7,000  Level Seattle Center
Wed 04:18:00 PM 46.3966 -118.4884 73° East  Level FlightAware Approximate
Wed 04:18:22 PM 46.1892 -118.8769 72° East 290 334 9,600  Level Seattle Center
Wed 04:19:00 PM 46.4307 -118.3289 73° East  Level FlightAware Approximate
Wed 04:19:23 PM 46.2222 -118.7647 67° East 305 351 11,300  Level Seattle Center
Wed 04:20:00 PM 46.4670 -118.1661 72° East  Level FlightAware Approximate
Wed 04:20:24 PM 46.2642 -118.6367 65° Northeast 335 386 13,500  Level Seattle Center
Wed 04:21:25 PM 46.3025 -118.5064 67° East 348 400 16,000 2,066 Climbing Seattle Center
Wed 04:22:26 PM 46.3417 -118.3711 67° East 360 414 17,700 1,820 Climbing Seattle Center
Wed 04:23:27 PM 46.3833 -118.2367 66° East 364 419 19,700 1,951 Climbing Seattle Center
Wed 04:24:29 PM 46.4247 -118.0986 66° East 371 427 21,700 2,146 Climbing Seattle Center
Wed 04:25:30 PM 46.4731 -117.9289 67° East 380 437 24,100 2,164 Climbing Seattle Center
Wed 04:26:31 PM 46.5108 -117.7903 68° East 370 426 26,100 1,967 Climbing Seattle Center
Wed 04:27:32 PM 46.5500 -117.6592 66° East 358 412 28,100 1,967 Climbing Seattle Center
Wed 04:28:33 PM 46.5869 -117.5325 67° East 344 396 30,100 1,918 Climbing Seattle Center
Wed 04:29:34 PM 46.6197 -117.4136 68° East 326 375 32,000 1,279 Climbing Seattle Center
Wed 04:30:35 PM 46.6514 -117.3000 68° East 311 358 32,700 439 Climbing Seattle Center
Wed 04:31:37 PM 46.6933 -117.1867 62° Northeast 319 367 32,900 98 Climbing Seattle Center
Wed 04:32:38 PM 46.7444 -117.0639 59° Northeast 352 405 32,900 98 Level Seattle Center
Wed 04:33:39 PM 46.7586 -116.9200 82° East 361 415 33,100 393 Climbing Seattle Center
Wed 04:34:40 PM 46.7739 -116.7431 83° East 370 426 33,700 639 Climbing Seattle Center
Wed 04:35:41 PM 46.7872 -116.5892 83° East 384 442 34,400 639 Climbing Seattle Center
Wed 04:36:42 PM 46.8000 -116.4356 83° East 387 445 35,000 295 Climbing Seattle Center
Wed 04:37:43 PM 46.8133 -116.2756 83° East 401 461 35,000  Level Seattle Center
Wed 04:38:44 PM 46.8267 -116.1083 83° East 418 481 35,000  Level Seattle Center
Wed 04:39:45 PM 46.8411 -115.9372 83° East 426 490 35,000  Level Seattle Center
Wed 04:40:46 PM 46.8547 -115.7622 83° East 434 499 35,000 -49 Level Seattle Center
Wed 04:41:48 PM 46.8678 -115.5878 84° East 435 501 34,900 829 Descending Seattle Center
Wed 04:42:49 PM 46.8817 -115.4186 83° East 427 491 36,700 1,033 Climbing Seattle Center
Wed 04:43:50 PM 46.8953 -115.2283 84° East 408 470 37,000 148 Climbing Seattle Center
Wed 04:44:51 PM 46.9067 -115.0611 84° East 412 474 37,000  Level Seattle Center
Wed 04:45:52 PM 46.9197 -114.8883 84° East 422 486 37,000  Level Seattle Center
Wed 04:46:53 PM 46.9314 -114.7100 84° East 436 502 37,000  Level Seattle Center
Wed 04:47:55 PM 46.9431 -114.5294 85° East 445 512 37,000  Level Seattle Center
Wed 04:48:56 PM 46.9556 -114.3439 84° East 455 524 37,000  Level Seattle Center
Wed 04:49:57 PM 46.9675 -114.1608 84° East 456 525 37,000  Level Seattle Center
Wed 04:50:58 PM 46.9811 -113.9378 85° East 460 529 37,000 -49 Level Seattle Center
Wed 04:52:00 PM 46.9922 -113.7533 85° East 458 527 36,900  Descending Seattle Center
Wed 04:53:01 PM 47.0036 -113.5728 85° East 452 520 37,000 41 Climbing Seattle Center
Wed 04:54:27 PM 47.0175 -113.3189 85° East 449 517 37,000  Level Salt Lake Center
Wed 04:55:29 PM 47.0275 -113.1372 85° East 450 518 37,000  Level Salt Lake Center
Wed 04:56:31 PM 47.0372 -112.9567 85° East 447 514 37,000  Level Salt Lake Center
Wed 04:57:32 PM 47.0481 -112.7536 85° East 450 518 37,000  Level Salt Lake Center
Wed 04:58:34 PM 47.0575 -112.5725 86° East 448 516 37,000  Level Salt Lake Center
Wed 04:59:36 PM 47.0669 -112.3925 86° East 445 512 37,000  Level Salt Lake Center
Wed 05:00:38 PM 47.0669 -112.2106 90° East 449 517 37,000  Level Salt Lake Center
Wed 05:01:39 PM 47.0650 -112.0289 91° East 448 516 37,000  Level Salt Lake Center
Wed 05:02:41 PM 47.0583 -111.8122 93° East 448 516 37,000  Level Salt Lake Center
Wed 05:03:43 PM 47.0489 -111.6322 94° East 447 514 37,000  Level Salt Lake Center
Wed 05:04:45 PM 47.0361 -111.4528 96° East 447 514 37,000  Level Salt Lake Center
Wed 05:05:46 PM 47.0289 -111.2728 93° East 446 513 37,000  Level Salt Lake Center
Wed 05:06:48 PM 46.9978 -111.0981 105° East 448 516 37,000  Level Salt Lake Center
Wed 05:07:50 PM 46.9664 -110.9244 105° East 446 513 37,000  Level Salt Lake Center
Wed 05:08:52 PM 47.0011 -110.7050 77° East 476 548 37,000  Level Salt Lake Center
Wed 05:09:53 PM 47.0539 -110.5275 66° East 476 548 37,000  Level Salt Lake Center
Wed 05:10:55 PM 47.0631 -110.3344 86° East 474 545 37,000  Level Salt Lake Center
Wed 05:11:57 PM 47.0686 -110.1408 88° East 479 551 37,000  Level Salt Lake Center
Wed 05:12:59 PM 47.0742 -109.9469 88° East 478 550 37,000  Level Salt Lake Center
Wed 05:14:01 PM 47.0819 -109.7131 87° East 481 554 37,000 -49 Level Salt Lake Center
Wed 05:15:02 PM 47.0881 -109.5183 87° East 481 554 36,900  Descending Salt Lake Center
Wed 05:16:04 PM 47.0931 -109.3208 88° East 483 556 37,000 48 Climbing Salt Lake Center
Wed 05:17:06 PM 47.0983 -109.1242 88° East 484 557 37,000  Level Salt Lake Center
Wed 05:18:08 PM 47.1025 -108.9036 88° East 489 563 37,000  Level Salt Lake Center
Wed 05:19:10 PM 47.1067 -108.7044 88° East 491 565 37,000  Level Salt Lake Center
Wed 05:20:11 PM 47.1111 -108.5053 88° East 489 563 37,000  Level Salt Lake Center
Wed 05:21:14 PM 47.1147 -108.3069 88° East 488 562 37,000  Level Salt Lake Center
Wed 05:22:15 PM 47.1228 -108.0914 87° East 488 562 37,000  Level Salt Lake Center
Wed 05:23:17 PM 47.1258 -107.8928 89° East 490 564 37,000  Level Salt Lake Center
Wed 05:24:19 PM 47.1272 -107.6731 89° East 489 563 37,000  Level Salt Lake Center
Wed 05:25:21 PM 47.1289 -107.4728 89° East 491 565 37,000  Level Salt Lake Center
Wed 05:26:23 PM 47.1331 -107.2739 88° East 490 564 37,000  Level Salt Lake Center
Wed 05:27:25 PM 47.1319 -107.0731 90° East 492 566 37,000  Level Salt Lake Center
Wed 05:28:27 PM 47.1339 -106.8731 89° East 492 566 37,000  Level Salt Lake Center
Wed 05:29:28 PM 47.1369 -106.6739 89° East 491 565 37,000  Level Salt Lake Center
Wed 05:30:30 PM 47.1342 -106.4733 91° East 492 566 37,000  Level Salt Lake Center
Wed 05:31:32 PM 47.1339 -106.2336 90° East 492 566 37,000  Level Salt Lake Center
Wed 05:32:34 PM 47.1350 -106.0364 89° East 489 563 37,000  Level Salt Lake Center
Wed 05:33:36 PM 47.1350 -105.8389 90° East 488 562 37,000  Level Salt Lake Center
Wed 05:34:38 PM 47.1336 -105.6394 91° East 488 562 37,000  Level Salt Lake Center
Wed 05:35:40 PM 47.1333 -105.4400 90° East 490 564 37,000  Level Salt Lake Center
Wed 05:36:42 PM 47.1319 -105.2417 91° East 489 563 37,000  Level Salt Lake Center
Wed 05:37:44 PM 47.1289 -105.0044 91° East 488 562 37,000  Level Salt Lake Center
Wed 05:38:46 PM 47.1256 -104.8069 91° East 487 560 37,000  Level Salt Lake Center
Wed 05:39:48 PM 47.1242 -104.6111 91° East 486 559 37,000  Level Salt Lake Center
Wed 05:40:50 PM 47.1222 -104.4142 91° East 485 558 37,000  Level Salt Lake Center
Wed 05:41:51 PM 47.1186 -104.2178 91° East 486 559 37,000  Level Salt Lake Center
Wed 05:42:53 PM 47.1144 -103.9797 91° East 488 562 37,000  Level Salt Lake Center
Wed 05:43:55 PM 47.1108 -103.7828 91° East 489 563 37,000  Level Salt Lake Center
Wed 05:44:57 PM 47.1072 -103.5836 91° East 490 564 37,000  Level Salt Lake Center
Wed 05:45:59 PM 47.1031 -103.3853 92° East 490 564 37,000  Level Salt Lake Center
Wed 05:47:01 PM 47.0981 -103.1881 92° East 490 564 37,000  Level Salt Lake Center
Wed 05:48:03 PM 47.0919 -102.9503 92° East 489 563 37,000  Level Salt Lake Center
Wed 05:49:14 PM 47.0881 -102.7517 92° East 493 567 37,000  Level Minneapolis Center
Wed 05:50:16 PM 47.0811 -102.5153 92° East 491 565 37,000  Level Minneapolis Center
Wed 05:51:18 PM 47.0758 -102.3186 92° East 488 562 37,000  Level Minneapolis Center
Wed 05:52:20 PM 47.0689 -102.1231 93° East 486 559 37,000  Level Minneapolis Center
Wed 05:53:22 PM 47.0619 -101.9258 93° East 485 558 37,000  Level Minneapolis Center
Wed 05:54:24 PM 47.0539 -101.7311 93° East 484 557 37,000  Level Minneapolis Center
Wed 05:55:38 PM 47.0450 -101.4964 93° East 483 556 37,000  Level Minneapolis Center
Wed 05:56:41 PM 47.0333 -101.2614 94° East 485 558 37,000  Level Minneapolis Center
Wed 05:57:42 PM 47.0281 -101.1053 93° East 484 557 37,000  Level Minneapolis Center
Wed 05:58:44 PM 47.0156 -100.9022 95° East 482 555 37,000  Level Minneapolis Center
Wed 05:59:47 PM 47.0050 -100.6647 94° East 486 559 37,000  Level Minneapolis Center
Wed 06:00:49 PM 46.9958 -100.4872 94° East 480 552 37,000  Level Minneapolis Center
Wed 06:01:51 PM 46.9839 -100.2539 94° East 480 552 37,000  Level Minneapolis Center
Wed 06:02:53 PM 46.9733 -100.0617 95° East 478 550 37,000  Level Minneapolis Center
Wed 06:03:55 PM 46.9633 -99.8683 94° East 477 549 37,000  Level Minneapolis Center
Wed 06:04:57 PM 46.9508 -99.6753 95° East 478 550 37,000  Level Minneapolis Center
Wed 06:06:00 PM 46.9372 -99.4414 95° East 481 554 37,000  Level Minneapolis Center
Wed 06:07:14 PM 46.9261 -99.2503 95° East 478 550 37,000  Level Minneapolis Center
Wed 06:08:16 PM 46.9111 -99.0189 95° East 478 550 37,000  Level Minneapolis Center
Wed 06:09:18 PM 46.9000 -98.8272 95° East 478 550 37,000  Level Minneapolis Center
Wed 06:10:20 PM 46.8869 -98.6353 96° East 478 550 37,000  Level Minneapolis Center
Wed 06:11:22 PM 46.8717 -98.4072 96° East 475 547 37,000  Level Minneapolis Center
Wed 06:12:25 PM 46.8581 -98.2178 96° East 474 545 37,000 -48 Level Minneapolis Center
Wed 06:13:27 PM 46.8453 -98.0292 96° East 471 542 36,900  Descending Minneapolis Center
Wed 06:14:29 PM 46.8303 -97.8392 97° East 475 547 37,000 44 Climbing Minneapolis Center
Wed 06:15:43 PM 46.8169 -97.6489 96° East 475 547 37,000  Level Minneapolis Center
Wed 06:16:45 PM 46.7961 -97.3842 96° East 472 543 37,000  Level Minneapolis Center
Wed 06:17:47 PM 46.7808 -97.1928 97° East 476 548 37,000  Level Minneapolis Center
Wed 06:18:50 PM 46.7661 -97.0028 96° East 476 548 37,000  Level Minneapolis Center
Wed 06:19:52 PM 46.7431 -96.8125 100° East 479 551 37,000  Level Minneapolis Center
Wed 06:20:54 PM 46.6903 -96.6392 114° Southeast 472 543 37,000  Level Minneapolis Center
Wed 06:21:56 PM 46.6364 -96.4633 114° Southeast 476 548 37,000  Level Minneapolis Center
Wed 06:22:58 PM 46.5725 -96.2497 113° Southeast 482 555 37,000  Level Minneapolis Center
Wed 06:24:00 PM 46.5172 -96.0731 114° Southeast 483 556 37,000  Level Minneapolis Center
Wed 06:25:02 PM 46.4633 -95.8950 114° Southeast 484 557 37,000  Level Minneapolis Center
Wed 06:26:04 PM 46.4008 -95.6944 114° Southeast 484 557 37,000  Level Minneapolis Center
Wed 06:27:06 PM 46.3442 -95.5144 114° Southeast 489 563 37,000  Level Minneapolis Center
Wed 06:28:08 PM 46.2908 -95.3453 114° Southeast 489 563 37,000  Level Minneapolis Center
Wed 06:29:10 PM 46.2347 -95.1669 114° Southeast 490 564 37,000  Level Minneapolis Center
Wed 06:30:12 PM 46.1739 -94.9753 115° Southeast 493 567 37,000 -576 Level Minneapolis Center
Wed 06:31:15 PM 46.1175 -94.8008 115° Southeast 484 557 35,800 -1,152 Descending Minneapolis Center
Wed 06:32:17 PM 46.0500 -94.5947 115° Southeast 479 551 34,600 -2,419 Descending Minneapolis Center
Wed 06:33:19 PM 45.9947 -94.4267 115° Southeast 469 540 30,800 -3,629 Descending Minneapolis Center
Wed 06:34:21 PM 45.9400 -94.2603 115° Southeast 465 535 27,100 -3,339 Descending Minneapolis Center
Wed 06:35:23 PM 45.8861 -94.0958 115° Southeast 461 531 23,900 -3,000 Descending Minneapolis Center
Wed 06:36:25 PM 45.8344 -93.9394 115° Southeast 445 512 20,900 -2,855 Descending Minneapolis Center
Wed 06:37:27 PM 45.7608 -93.8203 131° Southeast 420 483 18,000 -2,806 Descending Minneapolis Center
Wed 06:38:29 PM 45.6731 -93.7264 143° Southeast 394 453 15,100 -3,120 Descending Minneapolis Center
Wed 06:39:32 PM 45.5744 -93.6222 144° Southeast 366 421 11,500 -1,968 Descending Minneapolis Center
Wed 06:40:34 PM 45.4989 -93.5628 151° Southeast 315 362 11,000 -919 Descending Minneapolis Center
Wed 06:41:36 PM 45.4242 -93.5247 160° South 284 327 9,600 -1,306 Descending Minneapolis Center
Wed 06:42:38 PM 45.3478 -93.5028 169° South 279 321 8,300 -1,258 Descending Minneapolis Center
Wed 06:43:40 PM 45.2594 -93.4989 178° South 266 306 7,000 -629 Descending Minneapolis Center
Wed 06:44:42 PM 45.1856 -93.4931 177° South 267 307 7,000 -242 Level Minneapolis Center
Wed 06:45:44 PM 45.1136 -93.4722 168° South 269 310 6,500 -968 Descending Minneapolis Center
Wed 06:46:46 PM 45.0483 -93.4253 153° Southeast 264 304 5,000 -1,016 Descending Minneapolis Center
Wed 06:47:48 PM 44.9928 -93.3844 153° Southeast 217 250 4,400 -581 Descending Minneapolis Center

Login

Don't have an account? Register now (free) for customized features, flight alerts, and more!